Airfield :
LOGIN :

Register | Disclaimer

   EN    FR    IT 

 










Legend :    VFR   Marginal VFR   IFR   Intensive IFR   Very Intensive IFR
Visi :
Ceiling :
>= 8 km
>= 3000ft
5 to 8 km
1000 to 3000 ft
1500m to 5 km
500 to 1000 ft
800 to 1500m
200 to 500 ft
< 800m
< 200 ft
Symbols :   Thunderstorms  Fog  Heavy snow  Heavy precipitations  Wind > 20 kt
SIGMETs :     Misc.  Thunderstorms  Icing  Turbulence  Mountain Waves  Volcanic Ashes






- Airport Elevation : 1487 ft
- IATA code : MUC


EDDM - München Franz Josef Strauss

CURRENT METAR :
  • 191520Z 31003KT CAVOK 05/01 Q1016 NOSIG

EXPIRED METARs :
  • 191450Z 32004KT 9999 FEW022 06/01 Q1016 NOSIG
  • 191420Z 30005KT 9999 FEW022 06/01 Q1016 NOSIG
  • 191350Z 32005KT CAVOK 06/01 Q1015 NOSIG
  • 191320Z 33005KT 310V020 9999 FEW022 06/02 Q1015 NOSIG
  • 191250Z VRB02KT 9999 FEW022 06/01 Q1015 NOSIG

TAF TAF EDDM
Valid from the 19 at 12:00 until the 20 at 18:00 UTC


191100Z 1912/2018 VRB03KT CAVOK
TEMPO 2002/2008 3000 BCFG
TEMPO 2007/2009 BKN008
BECMG 2009/2011 06005KT BKN012
TEMPO 2011/2016 BKN015



MET'MAP, your aeronautical weather chart ! - Copyright ORBIFLY December 2007 - Disclaimer

ORBIFLY MET'MAP TEAM :

Programming & Development : Alexandra Zaïnal
Concept & Development : Baudouin d'Aumeries
Co-Development & Prog : Marc-Olivier Méhu
Technical & hardware support : Manuel Goepfert

Contact : metmap@orbifly.com




SOURCES & CREDITS :

   NOAA